Time;durP1;ratioP1;P1;durP2;ratioP2;P2;SDS_P1;SDS_P2;PMS_P1;PMS_P2;Temp;Humidity;BMP_temperature;BMP_pressure;BME280_temperature;BME280_humidity;BME280_pressure;Samples;Min_cycle;Max_cycle;Signal;HPM_P1;HPM_P2
2022/03/05 00:00:35;;;;;;;0.00;0.00;;;0.40;99.90;;;;;;5068004;28;20044;-62
2022/03/05 00:03:01;;;;;;;0.00;0.00;;;0.40;99.90;;;;;;5097137;28;20039;-64
2022/03/05 00:05:27;;;;;;;0.00;0.00;;;0.40;99.90;;;;;;5085918;28;20028;-64
2022/03/05 00:07:53;;;;;;;0.00;0.00;;;0.30;99.90;;;;;;5085030;28;20039;-65
2022/03/05 00:10:19;;;;;;;0.00;0.00;;;0.20;99.90;;;;;;5085312;28;20043;-64
2022/03/05 00:12:45;;;;;;;0.00;0.00;;;0.20;99.90;;;;;;5085582;28;20465;-63
2022/03/05 00:15:11;;;;;;;0.00;0.00;;;0.20;99.90;;;;;;5085901;28;20080;-64
2022/03/05 00:17:37;;;;;;;0.00;0.00;;;0.20;99.90;;;;;;5085643;28;20048;-64
2022/03/05 00:20:05;;;;;;;0.00;0.00;;;0.20;99.90;;;;;;5085731;28;20261;-64
2022/03/05 00:22:32;;;;;;;0.00;0.00;;;0.10;99.90;;;;;;5085621;28;20070;-63
2022/03/05 00:24:58;;;;;;;0.00;0.00;;;0.10;99.90;;;;;;5085228;28;20032;-63
2022/03/05 00:27:24;;;;;;;0.00;0.00;;;0.10;99.90;;;;;;5085493;28;20452;-63
2022/03/05 00:29:50;;;;;;;0.00;0.00;;;0.10;99.90;;;;;;5066964;28;20048;-66
2022/03/05 00:32:15;;;;;;;0.00;0.00;;;0.10;99.90;;;;;;5085612;28;20048;-67
2022/03/05 00:34:41;;;;;;;0.00;0.00;;;0.10;99.90;;;;;;5085392;28;20040;-66
2022/03/05 00:37:08;;;;;;;0.00;0.00;;;0.10;99.90;;;;;;5084422;28;20138;-67
2022/03/05 00:39:34;;;;;;;0.00;0.00;;;0.00;99.90;;;;;;5085770;28;20158;-64
2022/03/05 00:42:00;;;;;;;0.00;0.00;;;0.80;99.90;;;;;;5085525;28;20044;-64
2022/03/05 00:44:25;;;;;;;0.00;0.00;;;0.00;99.90;;;;;;5085051;28;20040;-64
2022/03/05 00:46:51;;;;;;;0.00;0.00;;;0.00;99.90;;;;;;5084927;28;20047;-65
2022/03/05 00:49:17;;;;;;;0.00;0.00;;;0.00;99.90;;;;;;5085113;28;20036;-66
2022/03/05 00:51:42;;;;;;;0.00;0.00;;;-0.10;99.90;;;;;;5083711;28;20059;-64
2022/03/05 00:54:08;;;;;;;0.00;0.00;;;0.40;99.90;;;;;;5050267;28;20046;-65
2022/03/05 00:56:34;;;;;;;0.00;0.00;;;0.40;99.90;;;;;;5085166;28;20062;-64
2022/03/05 00:59:00;;;;;;;0.00;0.00;;;-0.20;99.90;;;;;;5084995;28;20411;-64
2022/03/05 01:01:26;;;;;;;0.00;0.00;;;-0.20;99.90;;;;;;5067668;28;20048;-64
2022/03/05 01:03:52;;;;;;;0.00;0.00;;;-0.20;99.90;;;;;;5095720;28;20486;-64
2022/03/05 01:06:17;;;;;;;0.00;0.00;;;-0.20;99.90;;;;;;5104927;28;20044;-64
2022/03/05 01:08:43;;;;;;;0.00;0.00;;;-0.20;99.90;;;;;;5086571;28;20079;-67
2022/03/05 01:11:09;;;;;;;0.00;0.00;;;-0.20;99.90;;;;;;5105504;28;20043;-65
2022/03/05 01:13:35;;;;;;;0.00;0.00;;;-0.30;99.90;;;;;;5105296;28;20494;-63
2022/03/05 01:16:01;;;;;;;0.00;0.00;;;-0.30;99.90;;;;;;5087089;28;20051;-63
2022/03/05 01:18:27;;;;;;;0.00;0.00;;;-0.40;99.90;;;;;;5104927;28;20112;-64
2022/03/05 01:20:52;;;;;;;0.00;0.00;;;-0.40;99.90;;;;;;5103705;28;20490;-65
2022/03/05 01:23:19;;;;;;;0.00;0.00;;;;;;;;;;5104471;28;20036;-64
2022/03/05 01:25:44;;;;;;;0.00;0.00;;;-0.40;99.90;;;;;;5085957;28;20602;-65
2022/03/05 01:28:10;;;;;;;0.00;0.00;;;-0.40;99.90;;;;;;5105212;28;20051;-64
2022/03/05 01:30:36;;;;;;;0.00;0.00;;;-0.50;99.90;;;;;;5104678;28;20119;-65
2022/03/05 01:33:01;;;;;;;0.00;0.00;;;-0.50;99.90;;;;;;5104855;28;20628;-65
2022/03/05 01:35:27;;;;;;;0.00;0.00;;;-0.50;99.90;;;;;;5103815;28;20500;-64
2022/03/05 01:37:52;;;;;;;0.00;0.00;;;-0.50;99.90;;;;;;5104463;28;20616;-64
2022/03/05 01:40:18;;;;;;;0.00;0.00;;;-0.60;99.90;;;;;;5104701;28;20092;-64
2022/03/05 01:42:44;;;;;;;0.00;0.00;;;-0.60;99.90;;;;;;5104051;28;20036;-64
2022/03/05 01:45:12;;;;;;;0.00;0.00;;;-0.60;99.90;;;;;;5104784;28;20031;-66
2022/03/05 01:47:39;;;;;;;0.00;0.00;;;-0.70;99.90;;;;;;5104497;28;20042;-66
2022/03/05 01:50:05;;;;;;;0.00;0.00;;;-0.70;99.90;;;;;;5086756;28;20097;-62
2022/03/05 01:52:31;;;;;;;0.00;0.00;;;-0.70;99.90;;;;;;5103642;28;20043;-65
2022/03/05 01:54:57;;;;;;;0.00;0.00;;;-0.70;99.90;;;;;;5103697;28;20039;-66
2022/03/05 01:57:22;;;;;;;0.00;0.00;;;-0.70;99.90;;;;;;5104409;28;20126;-65
2022/03/05 01:59:48;;;;;;;0.00;0.00;;;-0.60;99.90;;;;;;5103780;28;20050;-65
2022/03/05 02:02:15;;;;;;;0.00;0.00;;;-0.80;99.90;;;;;;5097727;28;20039;-65
2022/03/05 02:04:40;;;;;;;0.00;0.00;;;-0.70;99.90;;;;;;5089431;28;20032;-64
2022/03/05 02:07:06;;;;;;;0.00;0.00;;;-0.80;99.90;;;;;;5083547;28;20491;-64
2022/03/05 02:09:32;;;;;;;0.00;0.00;;;-0.80;99.90;;;;;;5083867;28;20504;-65
2022/03/05 02:11:58;;;;;;;0.00;0.00;;;-0.80;99.90;;;;;;5083332;28;20051;-65
2022/03/05 02:14:23;;;;;;;0.00;0.00;;;-0.90;99.90;;;;;;5084055;28;20036;-64
2022/03/05 02:16:50;;;;;;;0.00;0.00;;;-0.90;99.90;;;;;;5083086;28;20089;-64
2022/03/05 02:19:16;;;;;;;0.00;0.00;;;-0.90;99.90;;;;;;5084137;28;20440;-65
2022/03/05 02:21:46;;;;;;;0.00;0.00;;;-0.90;99.90;;;;;;5082990;28;20139;-61
2022/03/05 02:24:11;;;;;;;0.00;0.00;;;-0.90;99.90;;;;;;5083664;28;20118;-64
2022/03/05 02:26:37;;;;;;;0.00;0.00;;;-0.90;99.90;;;;;;5083588;28;20120;-65
2022/03/05 02:29:03;;;;;;;0.00;0.00;;;-1.00;99.90;;;;;;5083672;28;20040;-65
2022/03/05 02:31:29;;;;;;;0.00;0.00;;;-1.00;99.90;;;;;;5084220;28;20054;-65
2022/03/05 02:33:55;;;;;;;0.00;0.00;;;-0.90;99.90;;;;;;5085617;28;20119;-66
2022/03/05 02:36:23;;;;;;;0.00;0.00;;;-0.90;99.90;;;;;;5069079;28;20041;-65
2022/03/05 02:38:49;;;;;;;0.00;0.00;;;-1.00;99.90;;;;;;5087310;28;20048;-65
2022/03/05 02:41:18;;;;;;;0.00;0.00;;;-1.00;99.90;;;;;;5087395;28;20486;-65
2022/03/05 02:43:44;;;;;;;0.00;0.00;;;-1.00;99.90;;;;;;5087175;28;20105;-65
2022/03/05 02:46:10;;;;;;;0.00;0.00;;;-1.00;99.90;;;;;;5087980;28;20220;-65
2022/03/05 02:48:36;;;;;;;0.00;0.00;;;-1.00;99.90;;;;;;5069204;28;20163;-65
2022/03/05 02:51:02;;;;;;;0.00;0.00;;;-0.20;99.90;;;;;;5087049;28;20040;-65
2022/03/05 02:53:29;;;;;;;0.00;0.00;;;-1.00;99.90;;;;;;5087641;28;20036;-65
2022/03/05 02:55:55;;;;;;;0.00;0.00;;;-1.00;99.90;;;;;;5086793;28;20430;-65
2022/03/05 02:58:21;;;;;;;0.00;0.00;;;-1.10;99.90;;;;;;5086960;28;20048;-65
2022/03/05 03:00:47;;;;;;;0.00;0.00;;;-1.10;99.90;;;;;;5086925;28;20119;-65
2022/03/05 03:03:12;;;;;;;0.10;0.10;;;-1.10;99.90;;;;;;5098749;28;20047;-66
2022/03/05 03:05:38;;;;;;;0.00;0.00;;;-1.00;99.90;;;;;;5085978;28;20088;-65
2022/03/05 03:08:04;;;;;;;0.00;0.00;;;-1.10;99.90;;;;;;5087439;28;20054;-65
2022/03/05 03:10:31;;;;;;;0.00;0.00;;;-1.10;99.90;;;;;;5087469;28;20519;-65
2022/03/05 03:12:58;;;;;;;0.00;0.00;;;-1.00;99.90;;;;;;5068446;28;20068;-65
2022/03/05 03:15:24;;;;;;;0.00;0.00;;;-1.10;99.90;;;;;;5087007;28;20044;-66
2022/03/05 03:17:50;;;;;;;0.00;0.00;;;-1.10;99.90;;;;;;5086672;28;20503;-66
2022/03/05 03:20:22;;;;;;;0.00;0.00;;;-1.10;99.90;;;;;;5086418;28;20042;-65
2022/03/05 03:22:48;;;;;;;0.00;0.00;;;-0.70;99.90;;;;;;5068492;28;20048;-66
2022/03/05 03:25:14;;;;;;;0.00;0.00;;;-1.10;99.90;;;;;;5068604;28;20044;-66
2022/03/05 03:27:40;;;;;;;0.00;0.00;;;-1.10;99.90;;;;;;5051624;28;20376;-65
2022/03/05 03:30:09;;;;;;;0.00;0.00;;;-1.10;99.90;;;;;;5086388;28;20079;-65
2022/03/05 03:32:35;;;;;;;0.00;0.00;;;-1.20;99.90;;;;;;5086779;28;20457;-62
2022/03/05 03:35:00;;;;;;;0.00;0.00;;;-1.10;99.90;;;;;;5086310;28;20170;-64
2022/03/05 03:37:29;;;;;;;0.00;0.00;;;-1.10;99.90;;;;;;5086602;28;20123;-63
2022/03/05 03:39:59;;;;;;;0.00;0.00;;;-1.10;99.90;;;;;;5085843;28;20048;-64
2022/03/05 03:42:25;;;;;;;0.00;0.00;;;-1.10;99.90;;;;;;5085323;28;20056;-63
2022/03/05 03:44:51;;;;;;;0.00;0.00;;;-1.10;99.90;;;;;;5067562;28;20048;-63
2022/03/05 03:47:18;;;;;;;0.00;0.00;;;-1.10;99.90;;;;;;5086221;28;20576;-64
2022/03/05 03:49:44;;;;;;;0.00;0.00;;;-1.10;99.90;;;;;;5085853;28;20087;-65
2022/03/05 03:52:09;;;;;;;0.00;0.00;;;-1.20;99.90;;;;;;5085724;28;20602;-66
2022/03/05 03:54:35;;;;;;;0.00;0.00;;;-1.20;99.90;;;;;;5085906;28;20390;-66
2022/03/05 03:57:01;;;;;;;0.00;0.00;;;-1.20;99.90;;;;;;5086066;28;20060;-65
2022/03/05 03:59:27;;;;;;;0.00;0.00;;;-1.20;99.90;;;;;;5086449;28;20052;-66
2022/03/05 04:01:52;;;;;;;1.35;0.38;;;-1.30;99.90;;;;;;5088104;28;20557;-65
2022/03/05 04:04:18;;;;;;;0.00;0.00;;;-1.30;99.90;;;;;;5084530;28;20044;-66
2022/03/05 04:09:28;;;;;;;0.00;0.00;;;-1.30;99.90;;;;;;5085824;28;20055;-65
2022/03/05 04:11:53;;;;;;;0.00;0.00;;;-1.20;99.90;;;;;;5085732;28;20036;-65
2022/03/05 04:14:19;;;;;;;0.00;0.00;;;-1.30;99.90;;;;;;5085932;28;20037;-65
2022/03/05 04:16:44;;;;;;;0.00;0.00;;;-1.30;99.90;;;;;;5085442;28;20101;-65
2022/03/05 04:19:10;;;;;;;0.00;0.00;;;-1.30;99.90;;;;;;5067315;28;20070;-66
2022/03/05 04:21:36;;;;;;;0.00;0.00;;;-1.00;99.90;;;;;;5084847;28;20051;-65
2022/03/05 04:24:02;;;;;;;0.00;0.00;;;-1.30;99.90;;;;;;5085756;28;20044;-65
2022/03/05 04:26:28;;;;;;;0.00;0.00;;;-1.30;99.90;;;;;;5085544;28;20407;-66
2022/03/05 04:28:53;;;;;;;0.00;0.00;;;-1.40;99.90;;;;;;5085278;28;20100;-65
2022/03/05 04:31:19;;;;;;;0.13;0.13;;;-1.40;99.90;;;;;;5085653;28;20511;-66
2022/03/05 04:33:45;;;;;;;0.00;0.00;;;-1.60;99.90;;;;;;5085137;28;20032;-66
2022/03/05 04:36:11;;;;;;;0.00;0.00;;;-1.20;99.90;;;;;;5084440;28;20036;-66
2022/03/05 04:38:36;;;;;;;0.00;0.00;;;-1.50;99.90;;;;;;5085238;28;20054;-66
2022/03/05 04:41:02;;;;;;;0.00;0.00;;;-1.50;99.90;;;;;;5085599;28;20138;-66
2022/03/05 04:43:28;;;;;;;0.00;0.00;;;-1.50;99.90;;;;;;5085116;28;20494;-65
2022/03/05 04:45:53;;;;;;;0.00;0.00;;;-1.50;99.90;;;;;;5084753;28;20044;-65
2022/03/05 04:48:19;;;;;;;0.00;0.00;;;-1.50;99.90;;;;;;5085061;28;20044;-64
2022/03/05 04:50:48;;;;;;;0.00;0.00;;;-1.50;99.90;;;;;;5084095;28;20043;-65
2022/03/05 04:53:14;;;;;;;0.00;0.00;;;-1.50;99.90;;;;;;5085083;28;20137;-65
2022/03/05 04:55:40;;;;;;;0.00;0.00;;;-1.60;99.90;;;;;;5084465;28;20085;-64
2022/03/05 04:58:06;;;;;;;0.00;0.00;;;-1.50;99.90;;;;;;5084272;28;20402;-65
2022/03/05 05:00:32;;;;;;;0.38;0.20;;;-1.60;99.90;;;;;;5085219;28;20048;-63
2022/03/05 05:02:58;;;;;;;0.00;0.00;;;-1.60;99.90;;;;;;5074404;28;20678;-63
2022/03/05 05:05:24;;;;;;;0.00;0.00;;;-1.60;99.90;;;;;;5084362;28;20071;-63
2022/03/05 05:07:50;;;;;;;0.00;0.00;;;-1.60;99.90;;;;;;5084785;28;20048;-65
2022/03/05 05:10:16;;;;;;;0.00;0.00;;;-1.60;99.90;;;;;;5084645;28;20136;-64
2022/03/05 05:12:41;;;;;;;0.00;0.00;;;-1.60;99.90;;;;;;5084519;28;20127;-63
2022/03/05 05:15:08;;;;;;;0.00;0.00;;;-1.30;99.90;;;;;;5084859;28;20036;-63
2022/03/05 05:17:38;;;;;;;0.00;0.00;;;-1.60;99.90;;;;;;5084484;28;20040;-64
2022/03/05 05:20:05;;;;;;;0.00;0.00;;;-0.80;99.90;;;;;;5084050;28;20044;-64
2022/03/05 05:22:32;;;;;;;0.00;0.00;;;-1.60;99.90;;;;;;5085046;28;20074;-63
2022/03/05 05:24:59;;;;;;;0.00;0.00;;;-2.70;99.90;;;;;;5083487;28;20287;-63
2022/03/05 05:27:24;;;;;;;0.00;0.00;;;-1.60;99.90;;;;;;5084679;28;20162;-63
2022/03/05 05:29:50;;;;;;;0.00;0.00;;;-0.60;99.90;;;;;;5084189;28;20147;-63
2022/03/05 05:32:16;;;;;;;0.00;0.00;;;-1.60;99.90;;;;;;5084485;28;20490;-63
2022/03/05 05:34:43;;;;;;;0.00;0.00;;;-1.60;99.90;;;;;;5082785;28;20039;-64
2022/03/05 05:37:08;;;;;;;0.00;0.00;;;-1.60;99.90;;;;;;5084368;28;20051;-64
2022/03/05 05:39:34;;;;;;;0.00;0.00;;;-1.60;99.90;;;;;;5084982;28;20040;-64
2022/03/05 05:42:00;;;;;;;0.00;0.00;;;-1.70;99.90;;;;;;5084184;28;20498;-64
2022/03/05 05:44:26;;;;;;;0.00;0.00;;;-1.70;99.90;;;;;;5084597;28;20040;-64
2022/03/05 05:46:51;;;;;;;0.00;0.00;;;-1.60;99.90;;;;;;5083913;28;20062;-63
2022/03/05 05:49:17;;;;;;;0.00;0.00;;;-1.70;99.90;;;;;;5084187;28;20074;-63
2022/03/05 05:51:43;;;;;;;0.00;0.00;;;-1.70;99.90;;;;;;5082585;28;20425;-64
2022/03/05 05:54:08;;;;;;;0.00;0.00;;;-1.60;99.90;;;;;;5066001;28;20040;-64
2022/03/05 05:56:35;;;;;;;0.00;0.00;;;-1.70;99.90;;;;;;5084217;28;20054;-63
2022/03/05 05:59:01;;;;;;;0.00;0.00;;;-1.70;99.90;;;;;;5083845;28;20435;-64
2022/03/05 06:01:26;;;;;;;0.00;0.00;;;-1.70;99.90;;;;;;5086591;28;20362;-64
2022/03/05 06:03:53;;;;;;;0.05;0.03;;;-1.70;99.90;;;;;;5092362;28;20040;-63
2022/03/05 06:06:20;;;;;;;0.00;0.00;;;-1.70;99.90;;;;;;5083481;28;20048;-64
2022/03/05 06:08:46;;;;;;;0.00;0.00;;;-1.70;99.90;;;;;;5082642;28;20819;-64
2022/03/05 06:11:12;;;;;;;0.00;0.00;;;-1.60;99.90;;;;;;5082475;28;20127;-64
2022/03/05 06:13:37;;;;;;;0.00;0.00;;;-1.60;99.90;;;;;;5083958;28;20036;-64
2022/03/05 06:16:04;;;;;;;0.00;0.00;;;-1.60;99.90;;;;;;5083777;28;20048;-64
2022/03/05 06:18:30;;;;;;;0.00;0.00;;;-1.60;99.90;;;;;;5084423;28;20127;-64
2022/03/05 06:20:56;;;;;;;0.00;0.00;;;-1.60;99.90;;;;;;5082675;28;20193;-64
2022/03/05 06:23:23;;;;;;;0.00;0.00;;;-1.40;99.90;;;;;;5084053;28;20048;-65
2022/03/05 06:25:49;;;;;;;0.00;0.00;;;-1.70;99.90;;;;;;5083508;28;20089;-64
2022/03/05 06:28:15;;;;;;;0.00;0.00;;;-1.60;99.90;;;;;;5083919;28;20036;-64
2022/03/05 06:30:40;;;;;;;0.00;0.00;;;-1.60;99.90;;;;;;5083523;28;20063;-64
2022/03/05 06:33:06;;;;;;;0.00;0.00;;;-1.60;99.90;;;;;;5065360;28;20109;-64
2022/03/05 06:35:32;;;;;;;0.00;0.00;;;-1.60;99.90;;;;;;5083631;28;20491;-63
2022/03/05 06:37:57;;;;;;;0.00;0.00;;;-1.60;99.90;;;;;;5083382;28;20052;-64
2022/03/05 06:40:23;;;;;;;0.00;0.00;;;-1.50;99.90;;;;;;5083850;28;20572;-64
2022/03/05 06:42:49;;;;;;;0.00;0.00;;;-1.60;99.90;;;;;;5083067;28;20105;-64
2022/03/05 06:45:14;;;;;;;0.00;0.00;;;-1.50;99.90;;;;;;5083852;28;20043;-64
2022/03/05 06:47:40;;;;;;;0.00;0.00;;;-1.50;99.90;;;;;;5083286;28;20044;-64
2022/03/05 06:50:08;;;;;;;0.00;0.00;;;-1.30;99.90;;;;;;5082810;28;20036;-64
2022/03/05 06:52:34;;;;;;;0.00;0.00;;;-1.50;99.90;;;;;;5082510;28;20101;-64
2022/03/05 06:55:00;;;;;;;0.00;0.00;;;-1.50;99.90;;;;;;5083507;28;20044;-63
2022/03/05 06:57:26;;;;;;;0.00;0.00;;;-1.40;99.90;;;;;;5083034;28;20056;-65
2022/03/05 06:59:53;;;;;;;0.00;0.00;;;-1.30;99.90;;;;;;5083221;28;20097;-63
2022/03/05 07:02:19;;;;;;;0.00;0.00;;;-1.30;99.90;;;;;;5089706;28;20051;-66
2022/03/05 07:04:44;;;;;;;0.00;0.00;;;-1.30;99.90;;;;;;5087329;28;20036;-65
2022/03/05 07:07:10;;;;;;;0.00;0.00;;;-1.30;99.90;;;;;;5083274;28;20040;-63
2022/03/05 07:09:35;;;;;;;0.00;0.00;;;-1.20;99.90;;;;;;5065229;28;20040;-64
2022/03/05 07:12:01;;;;;;;0.00;0.00;;;-1.20;99.90;;;;;;5065397;28;20522;-64
2022/03/05 07:14:27;;;;;;;0.00;0.00;;;-1.20;99.90;;;;;;5083025;28;20044;-64
2022/03/05 07:16:54;;;;;;;0.00;0.00;;;-1.10;99.90;;;;;;5083059;28;20048;-63
2022/03/05 07:19:20;;;;;;;0.00;0.00;;;-1.10;99.90;;;;;;5083692;28;20059;-64
2022/03/05 07:21:45;;;;;;;0.00;0.00;;;-1.00;99.90;;;;;;5085492;28;20044;-64
2022/03/05 07:24:11;;;;;;;0.00;0.00;;;-1.00;99.90;;;;;;5086637;28;20035;-64
2022/03/05 07:26:37;;;;;;;0.00;0.00;;;-0.90;99.90;;;;;;5086621;28;20048;-65
2022/03/05 07:29:03;;;;;;;0.00;0.00;;;-0.80;99.90;;;;;;5086984;28;20040;-63
2022/03/05 07:31:29;;;;;;;0.00;0.00;;;-0.80;99.90;;;;;;5086663;28;20052;-64
2022/03/05 07:33:54;;;;;;;0.00;0.00;;;-0.80;99.90;;;;;;5086374;28;20040;-65
2022/03/05 07:36:20;;;;;;;0.00;0.00;;;-0.70;99.90;;;;;;5086069;28;20052;-64
2022/03/05 07:38:46;;;;;;;0.00;0.00;;;-0.70;99.90;;;;;;5086131;28;20044;-64
2022/03/05 07:41:13;;;;;;;0.10;0.10;;;-0.60;99.90;;;;;;5086425;28;20051;-67
2022/03/05 07:43:39;;;;;;;0.00;0.00;;;-0.60;99.90;;;;;;5086133;28;20502;-61
2022/03/05 07:46:05;;;;;;;0.00;0.00;;;-0.50;99.90;;;;;;5086568;28;20044;-61
2022/03/05 07:48:30;;;;;;;0.00;0.00;;;-0.50;99.90;;;;;;5084989;28;20036;-64
2022/03/05 07:50:59;;;;;;;0.00;0.00;;;-0.30;99.90;;;;;;5067269;28;20055;-65
2022/03/05 07:53:27;;;;;;;0.00;0.00;;;-0.30;99.90;;;;;;5086622;28;20044;-63
2022/03/05 07:55:53;;;;;;;0.00;0.00;;;-0.20;99.90;;;;;;5085507;28;20066;-64
2022/03/05 07:58:18;;;;;;;0.00;0.00;;;-0.20;99.90;;;;;;5085924;28;20040;-64
2022/03/05 08:00:44;;;;;;;0.00;0.00;;;-0.10;99.90;;;;;;5085815;28;20093;-64
2022/03/05 08:03:10;;;;;;;0.00;0.00;;;0.00;99.90;;;;;;5097667;28;20494;-65
2022/03/05 08:05:36;;;;;;;0.00;0.00;;;0.00;99.90;;;;;;5085083;28;20739;-63
2022/03/05 08:08:02;;;;;;;0.00;0.00;;;0.10;99.90;;;;;;5086042;28;20048;-64
2022/03/05 08:10:28;;;;;;;0.00;0.00;;;0.10;99.90;;;;;;5086190;28;20040;-65
2022/03/05 08:12:53;;;;;;;0.00;0.00;;;0.60;99.90;;;;;;5085326;28;20048;-63
2022/03/05 08:15:19;;;;;;;0.00;0.00;;;0.50;99.90;;;;;;5085835;28;20135;-64
2022/03/05 08:17:59;;;;;;;0.00;0.00;;;0.40;99.90;;;;;;5067321;28;20040;-64
2022/03/05 08:20:28;;;;;;;0.10;0.10;;;0.50;99.90;;;;;;5084801;28;20135;-65
2022/03/05 08:22:53;;;;;;;0.00;0.00;;;0.70;99.90;;;;;;5085444;28;20048;-64
2022/03/05 08:25:19;;;;;;;0.00;0.00;;;0.70;99.90;;;;;;5085746;28;20453;-64
2022/03/05 08:27:45;;;;;;;0.00;0.00;;;1.30;99.90;;;;;;5085105;28;20040;-64
2022/03/05 08:30:12;;;;;;;0.00;0.00;;;0.80;99.90;;;;;;5085275;28;20036;-64
2022/03/05 08:32:38;;;;;;;0.00;0.00;;;0.80;99.90;;;;;;5085578;28;20036;-65
2022/03/05 08:35:05;;;;;;;0.00;0.00;;;0.90;99.90;;;;;;5084982;28;20066;-64
2022/03/05 08:37:31;;;;;;;0.00;0.00;;;-0.10;99.90;;;;;;5085182;28;20059;-63
2022/03/05 08:39:57;;;;;;;0.00;0.00;;;1.10;99.90;;;;;;5084861;28;20075;-63
2022/03/05 08:42:23;;;;;;;0.00;0.00;;;1.10;99.90;;;;;;5085422;28;20054;-63
2022/03/05 08:44:49;;;;;;;0.00;0.00;;;1.30;99.90;;;;;;5084812;28;20040;-63
2022/03/05 08:47:15;;;;;;;0.00;0.00;;;1.40;99.90;;;;;;5085504;28;20253;-63
2022/03/05 08:49:40;;;;;;;0.20;0.20;;;1.50;99.90;;;;;;5065924;28;20032;-63
2022/03/05 08:52:07;;;;;;;0.00;0.00;;;1.60;99.90;;;;;;5084108;28;20052;-63
2022/03/05 08:54:32;;;;;;;0.00;0.00;;;1.70;99.90;;;;;;5085105;28;20083;-62
2022/03/05 08:56:58;;;;;;;0.00;0.00;;;1.70;99.90;;;;;;5084238;28;20113;-63
2022/03/05 08:59:24;;;;;;;0.13;0.13;;;1.90;99.90;;;;;;5085098;28;20296;-63
2022/03/05 09:01:50;;;;;;;0.00;0.00;;;2.00;99.90;;;;;;5086427;28;20506;-63
2022/03/05 09:04:15;;;;;;;0.00;0.00;;;2.10;99.90;;;;;;5093153;28;20110;-63
2022/03/05 09:06:41;;;;;;;0.10;0.10;;;2.10;99.90;;;;;;5084855;28;20071;-63
2022/03/05 09:09:08;;;;;;;0.00;0.00;;;2.20;99.90;;;;;;5084973;28;20046;-63
2022/03/05 09:11:37;;;;;;;0.00;0.00;;;2.40;99.90;;;;;;5066980;28;20099;-65
2022/03/05 09:14:03;;;;;;;0.00;0.00;;;2.40;99.90;;;;;;5084832;28;20426;-65
2022/03/05 09:16:29;;;;;;;0.10;0.10;;;2.50;99.90;;;;;;5084581;28;20051;-65
2022/03/05 09:18:55;;;;;;;0.00;0.00;;;2.70;99.90;;;;;;5083888;28;20040;-65
2022/03/05 09:21:21;;;;;;;0.00;0.00;;;2.80;99.90;;;;;;5084021;28;20513;-60
2022/03/05 09:23:47;;;;;;;0.00;0.00;;;3.70;99.90;;;;;;5084165;28;20288;-65
2022/03/05 09:26:16;;;;;;;0.00;0.00;;;3.70;99.90;;;;;;5084682;28;20048;-64
2022/03/05 09:28:42;;;;;;;0.10;0.10;;;4.60;99.90;;;;;;5083765;28;20058;-64
2022/03/05 09:31:08;;;;;;;0.43;0.30;;;5.20;99.90;;;;;;5084606;28;20119;-63
2022/03/05 09:33:33;;;;;;;0.00;0.00;;;5.40;99.90;;;;;;5085160;28;20040;-64
2022/03/05 09:35:59;;;;;;;0.05;0.05;;;5.90;99.90;;;;;;5083040;28;20521;-64
2022/03/05 09:38:25;;;;;;;0.00;0.00;;;6.10;99.90;;;;;;5084425;28;20055;-63
2022/03/05 09:40:52;;;;;;;2.47;0.80;;;6.50;99.90;;;;;;5084063;28;20128;-64
2022/03/05 09:43:19;;;;;;;0.10;0.10;;;6.90;99.90;;;;;;5083642;28;20048;-64
2022/03/05 09:45:45;;;;;;;0.00;0.00;;;7.60;99.90;;;;;;5082857;28;20048;-64
2022/03/05 09:48:14;;;;;;;0.00;0.00;;;7.70;99.90;;;;;;5084470;28;20044;-65
2022/03/05 09:50:40;;;;;;;0.00;0.00;;;7.90;99.90;;;;;;5083238;28;20487;-63
2022/03/05 09:53:06;;;;;;;0.03;0.03;;;8.20;99.90;;;;;;5082540;28;20151;-63
2022/03/05 09:55:32;;;;;;;0.00;0.00;;;7.50;99.90;;;;;;5083861;28;20179;-65
2022/03/05 09:57:58;;;;;;;0.00;0.00;;;7.90;99.90;;;;;;5082961;28;20048;-63
2022/03/05 10:00:24;;;;;;;12.20;0.32;;;7.60;99.90;;;;;;5083149;28;20439;-63
2022/03/05 10:02:49;;;;;;;0.00;0.00;;;7.50;99.90;;;;;;5072196;28;20126;-64
2022/03/05 10:05:24;;;;;;;0.20;0.20;;;7.70;99.90;;;;;;5083813;28;20040;-63
2022/03/05 10:08:10;;;;;;;;;;;7.20;99.90;;;;;;5085173;28;20047;-66
2022/03/05 10:11:01;;;;;;;0.00;0.00;;;7.70;99.90;;;;;;5103788;28;19920;-63
2022/03/05 10:13:30;;;;;;;0.10;0.10;;;8.00;99.90;;;;;;5103473;28;20055;-62
2022/03/05 10:16:01;;;;;;;0.00;0.00;;;7.70;99.90;;;;;;5103052;28;20080;-64
2022/03/05 10:18:40;;;;;;;0.10;0.10;;;8.10;99.90;;;;;;5103538;28;20046;-66
2022/03/05 10:21:08;;;;;;;0.70;0.57;;;7.90;99.90;;;;;;5102717;28;20124;-64
2022/03/05 10:23:41;;;;;;;0.10;0.10;;;8.00;99.90;;;;;;5085550;28;20426;-63
2022/03/05 10:26:08;;;;;;;0.20;0.20;;;7.50;99.90;;;;;;5103145;28;20059;-64
2022/03/05 10:28:37;;;;;;;0.08;0.08;;;7.10;99.90;;;;;;5104316;28;20047;-64
2022/03/05 10:31:09;;;;;;;0.08;0.08;;;7.70;99.90;;;;;;5086082;28;20028;-65
2022/03/05 10:33:43;;;;;;;0.10;0.10;;;8.20;99.90;;;;;;5103513;28;20040;-64
2022/03/05 10:36:16;;;;;;;0.00;0.00;;;8.10;99.90;;;;;;5102615;28;20036;-64
2022/03/05 10:38:55;;;;;;;0.00;0.00;;;8.50;99.90;;;;;;5084442;28;20072;-64
2022/03/05 10:41:38;;;;;;;0.00;0.00;;;7.80;99.90;;;;;;5103577;28;20047;-64
2022/03/05 10:44:13;;;;;;;0.08;0.08;;;7.20;99.90;;;;;;5103358;28;20039;-64
2022/03/05 10:46:44;;;;;;;0.00;0.00;;;7.60;99.90;;;;;;5103480;28;20093;-63
2022/03/05 10:49:19;;;;;;;0.00;0.00;;;8.20;99.90;;;;;;5102971;28;20443;-65
2022/03/05 10:51:49;;;;;;;0.00;0.00;;;8.10;99.90;;;;;;5103096;28;20047;-65
2022/03/05 10:54:26;;;;;;;0.00;0.00;;;8.20;99.90;;;;;;5103248;28;20383;-64
2022/03/05 10:57:13;;;;;;;0.00;0.00;;;7.50;99.90;;;;;;5087458;28;20091;-64
2022/03/05 10:59:44;;;;;;;0.32;0.22;;;7.10;99.90;;;;;;5106769;28;20135;-62
2022/03/05 11:02:12;;;;;;;0.10;0.10;;;7.20;99.90;;;;;;5076972;28;20048;-65
2022/03/05 11:04:39;;;;;;;0.40;0.40;;;7.50;99.90;;;;;;5090177;28;20456;-64
2022/03/05 11:07:07;;;;;;;0.00;0.00;;;7.60;99.90;;;;;;5092069;28;20127;-65
2022/03/05 11:09:35;;;;;;;0.05;0.05;;;7.90;99.90;;;;;;5090087;28;20478;-65
2022/03/05 11:12:01;;;;;;;0.10;0.10;;;8.00;99.90;;;;;;5074769;28;20048;-65
2022/03/05 11:14:28;;;;;;;0.60;0.60;;;8.00;99.90;;;;;;5091038;28;20047;-65
2022/03/05 11:16:54;;;;;;;0.00;0.00;;;7.80;99.90;;;;;;5090182;28;20421;-65
2022/03/05 11:19:21;;;;;;;0.00;0.00;;;8.60;99.90;;;;;;5090611;28;20057;-65
2022/03/05 11:21:47;;;;;;;0.00;0.00;;;8.30;99.90;;;;;;5090308;28;20401;-65
2022/03/05 11:24:15;;;;;;;0.00;0.00;;;8.00;99.90;;;;;;5091406;28;20036;-65
2022/03/05 11:26:41;;;;;;;0.00;0.00;;;8.00;99.90;;;;;;5089603;28;20040;-66
2022/03/05 11:29:07;;;;;;;0.03;0.03;;;7.90;99.90;;;;;;5090017;28;20122;-65
2022/03/05 11:31:35;;;;;;;0.10;0.10;;;8.40;99.90;;;;;;5091435;28;20044;-65
2022/03/05 11:34:18;;;;;;;0.10;0.10;;;8.60;99.90;;;;;;5089992;28;20083;-65
2022/03/05 11:36:47;;;;;;;0.15;0.15;;;9.00;99.90;;;;;;5089733;28;20756;-66
2022/03/05 11:39:19;;;;;;;0.00;0.00;;;9.10;99.90;;;;;;5072438;28;20093;-65
2022/03/05 11:41:54;;;;;;;0.00;0.00;;;8.80;99.90;;;;;;5089864;28;20040;-65
2022/03/05 11:44:22;;;;;;;0.00;0.00;;;9.10;99.90;;;;;;5073279;28;20397;-65
2022/03/05 11:46:49;;;;;;;0.00;0.00;;;8.80;99.90;;;;;;5071512;28;20100;-65
2022/03/05 11:49:16;;;;;;;0.00;0.00;;;8.80;99.90;;;;;;5090096;28;20757;-64
2022/03/05 11:51:53;;;;;;;0.00;0.00;;;9.00;99.90;;;;;;5073557;28;20035;-63
2022/03/05 11:54:19;;;;;;;4.80;0.60;;;8.80;99.90;;;;;;5090081;28;20043;-64
2022/03/05 11:57:01;;;;;;;0.00;0.00;;;8.00;99.90;;;;;;5089142;28;20047;-65
2022/03/05 11:59:35;;;;;;;0.00;0.00;;;8.50;99.90;;;;;;5089178;28;20452;-66
2022/03/05 12:02:01;;;;;;;0.20;0.20;;;8.70;99.90;;;;;;5089237;28;20895;-64
2022/03/05 12:04:28;;;;;;;0.00;0.00;;;8.60;99.90;;;;;;5089209;28;20127;-64
2022/03/05 12:06:59;;;;;;;0.08;0.08;;;9.00;99.90;;;;;;5079640;28;20051;-65
2022/03/05 12:09:36;;;;;;;0.00;0.00;;;8.80;99.90;;;;;;5071128;28;20124;-63
2022/03/05 12:12:08;;;;;;;0.20;0.20;;;10.00;99.90;;;;;;5090370;28;20505;-65
2022/03/05 12:14:55;;;;;;;0.52;0.35;;;8.60;99.90;;;;;;5090235;28;20042;-64
2022/03/05 12:17:24;;;;;;;0.00;0.00;;;8.90;99.90;;;;;;5089883;28;20122;-63
2022/03/05 12:19:50;;;;;;;0.00;0.00;;;8.70;99.90;;;;;;5087229;28;20657;-63
2022/03/05 12:22:16;;;;;;;0.00;0.00;;;8.50;99.90;;;;;;5089557;28;20110;-64
2022/03/05 12:24:42;;;;;;;0.10;0.10;;;8.70;99.90;;;;;;5089410;28;20050;-62
2022/03/05 12:27:14;;;;;;;0.10;0.10;;;8.80;99.90;;;;;;5088658;28;20514;-63
2022/03/05 12:29:50;;;;;;;0.35;0.20;;;8.80;99.90;;;;;;5089340;28;20043;-63
2022/03/05 12:32:18;;;;;;;0.00;0.00;;;9.20;99.90;;;;;;5073824;28;20065;-63
2022/03/05 12:34:44;;;;;;;0.00;0.00;;;9.30;99.90;;;;;;5088244;28;20054;-65
2022/03/05 12:37:10;;;;;;;0.00;0.00;;;9.60;99.90;;;;;;5089777;28;20035;-64
2022/03/05 12:39:42;;;;;;;0.00;0.00;;;9.60;99.90;;;;;;5089116;28;20032;-63
2022/03/05 12:42:09;;;;;;;0.00;0.00;;;9.70;99.90;;;;;;5088679;28;20051;-64
2022/03/05 12:44:39;;;;;;;0.00;0.00;;;9.60;99.90;;;;;;5072491;28;20038;-61
2022/03/05 12:47:06;;;;;;;0.00;0.00;;;9.30;99.90;;;;;;5071720;28;20040;-64
2022/03/05 12:49:32;;;;;;;0.00;0.00;;;9.30;99.90;;;;;;5088073;28;20093;-63
2022/03/05 12:51:58;;;;;;;0.20;0.20;;;9.20;99.90;;;;;;5088346;28;20054;-63
2022/03/05 12:54:24;;;;;;;0.00;0.00;;;10.10;99.90;;;;;;5089625;28;20046;-64